Kotel'nich, Russia
Current Conditions -  °F | °C
As of 5:30 PM on Saturday 25 Oct 2014 (Local Time) from UWKS Reporting Station
Broken Clouds Broken Clouds  
Wind Chill:   Ceiling: 3000
Heat Index: 21°   Visibility: 6mi
Dew Point: 14°   Wind: 13mph
Humidity: 74%   Direction: 350°N
Pressure: 30.45"   Gusts: NA
Location:  58.3°N, 48.35°E
Report Text: UWKS 251330Z 35006MPS 9999 BKN030CB M06/M10 Q1031 NOSIG RMKQFE758 06820250
Loading
Personal Weather Stations






























Interactive Weather Map
Tropical Storm Tracking
New forecast layout! Learn more

10-Day Weather Forecast

Advertisements
Track Severe Weather on mobile